Time;durP1;ratioP1;P1;durP2;ratioP2;P2;SDS_P1;SDS_P2;PMS_P1;PMS_P2;Temp;Humidity;BMP_temperature;BMP_pressure;BME280_temperature;BME280_humidity;BME280_pressure;Samples;Min_cycle;Max_cycle;Signal;HPM_P1;HPM_P2
2022/07/27 00:01:21;;;;;;;1.27;1.17;;;21.40;57.60;;;;;;4961960;28;20179;-88
2022/07/27 00:03:58;;;;;;;1.02;1.02;;;21.40;57.70;;;;;;5007139;28;20180;-88
2022/07/27 00:06:32;;;;;;;0.90;0.90;;;21.40;57.70;;;;;;4992626;28;20191;-88
2022/07/27 00:09:05;;;;;;;1.10;1.05;;;21.40;57.70;;;;;;4967192;29;20177;-87
2022/07/27 00:11:47;;;;;;;1.50;1.40;;;21.40;57.60;;;;;;4937132;29;20190;-89
2022/07/27 00:14:14;;;;;;;1.20;1.10;;;21.40;57.70;;;;;;4914723;29;20250;-88
2022/07/27 00:16:47;;;;;;;1.25;1.15;;;21.40;57.80;;;;;;4929278;29;20193;-89
2022/07/27 00:19:25;;;;;;;1.17;1.08;;;21.40;57.70;;;;;;4930180;29;20178;-88
2022/07/27 00:21:54;;;;;;;1.40;1.17;;;21.40;57.80;;;;;;4899646;29;20190;-89
2022/07/27 00:24:38;;;;;;;1.33;1.23;;;21.40;57.70;;;;;;4879259;29;20187;-89
2022/07/27 00:27:09;;;;;;;1.40;1.30;;;21.40;57.70;;;;;;4868509;29;20188;-89
2022/07/27 00:29:39;;;;;;;1.13;1.02;;;21.40;57.70;;;;;;4872903;29;20220;-89
2022/07/27 00:32:09;;;;;;;1.00;1.00;;;21.40;57.70;;;;;;4869714;29;20189;-87
2022/07/27 00:34:42;;;;;;;1.10;1.10;;;21.40;57.70;;;;;;4854564;29;20208;-88
2022/07/27 00:37:26;;;;;;;1.20;1.10;;;21.40;57.70;;;;;;4891179;29;20194;-88
2022/07/27 00:39:55;;;;;;;1.08;1.00;;;21.30;57.70;;;;;;4884674;29;20216;-89
2022/07/27 00:42:30;;;;;;;0.98;0.98;;;21.40;57.70;;;;;;4926872;29;20175;-88
2022/07/27 00:45:13;;;;;;;1.20;1.10;;;21.40;57.80;;;;;;4888155;29;20252;-88
2022/07/27 00:47:43;;;;;;;2.05;1.00;;;21.40;57.80;;;;;;4873011;29;20200;-89
2022/07/27 00:50:22;;;;;;;1.30;1.20;;;21.40;57.70;;;;;;4887941;29;20192;-88
2022/07/27 00:52:59;;;;;;;2.05;1.00;;;21.40;57.80;;;;;;4887427;29;20188;-90
2022/07/27 00:55:38;;;;;;;;;;;;;;;;;;;;;
2022/07/27 00:58:25;;;;;;;1.38;1.27;;;21.40;57.80;;;;;;4843768;29;20286;-88
2022/07/27 01:00:57;;;;;;;1.10;1.00;;;21.40;57.80;;;;;;4827284;29;20186;-89
2022/07/27 01:03:33;;;;;;;1.20;1.10;;;21.40;58.40;;;;;;4835442;29;20192;-89
2022/07/27 01:06:04;;;;;;;1.25;1.15;;;21.40;57.80;;;;;;4851295;29;20238;-88
2022/07/27 01:08:30;;;;;;;1.40;1.30;;;21.40;57.80;;;;;;4835606;29;20273;-88
2022/07/27 01:11:06;;;;;;;1.02;1.00;;;21.40;57.80;;;;;;4850897;29;20198;-89
2022/07/27 01:13:42;;;;;;;1.10;1.00;;;21.30;57.80;;;;;;4853876;29;20189;-88
2022/07/27 01:16:17;;;;;;;1.33;1.23;;;21.40;57.90;;;;;;4868770;29;20209;-88
2022/07/27 01:18:54;;;;;;;1.20;1.08;;;21.40;57.90;;;;;;4884570;29;20214;-89
2022/07/27 01:21:29;;;;;;;1.17;1.08;;;21.40;57.90;;;;;;4871576;29;20224;-88
2022/07/27 01:24:09;;;;;;;;;;;;;;;;;;;;;
2022/07/27 01:26:40;;;;;;;0.90;0.90;;;21.40;57.90;;;;;;4876201;29;20278;-89
2022/07/27 01:29:12;;;;;;;1.45;1.20;;;21.30;57.90;;;;;;4881427;29;20183;-90
2022/07/27 01:31:55;;;;;;;;;;;;;;;;;;;;;
2022/07/27 01:34:33;;;;;;;1.27;1.17;;;21.40;58.00;;;;;;4938937;28;20320;-89
2022/07/27 01:37:07;;;;;;;1.65;1.20;;;21.30;57.90;;;;;;5024591;28;20171;-88
2022/07/27 01:39:43;;;;;;;1.52;1.25;;;21.30;57.90;;;;;;5005433;28;20183;-88
2022/07/27 01:42:11;;;;;;;0.80;0.80;;;21.30;57.90;;;;;;5015685;28;20183;-89
2022/07/27 01:44:40;;;;;;;1.17;1.10;;;21.30;57.90;;;;;;4992408;28;20179;-89
2022/07/27 01:47:09;;;;;;;1.20;1.10;;;21.30;57.90;;;;;;4992424;28;20199;-89
2022/07/27 01:49:41;;;;;;;1.30;1.20;;;21.30;58.00;;;;;;4992493;28;20187;-89
2022/07/27 01:52:13;;;;;;;1.13;1.02;;;21.40;58.70;;;;;;5008551;28;20195;-90
2022/07/27 01:54:56;;;;;;;2.10;1.30;;;21.30;58.00;;;;;;4984852;28;20315;-89
2022/07/27 01:57:25;;;;;;;1.50;1.40;;;21.30;58.00;;;;;;4984528;28;20184;-88
2022/07/27 01:59:55;;;;;;;1.30;1.20;;;21.30;58.10;;;;;;4985242;28;20184;-87
2022/07/27 02:02:37;;;;;;;1.00;1.00;;;21.30;58.00;;;;;;4961798;28;20321;-90
2022/07/27 02:05:12;;;;;;;1.40;1.30;;;21.30;58.00;;;;;;4935910;29;20296;-89
2022/07/27 02:07:47;;;;;;;1.20;1.10;;;21.30;58.10;;;;;;4934032;29;20185;-88
2022/07/27 02:10:22;;;;;;;1.38;1.27;;;21.30;58.70;;;;;;4964416;28;20179;-88
2022/07/27 02:12:54;;;;;;;1.42;1.33;;;21.30;58.00;;;;;;4957000;28;20195;-88
2022/07/27 02:15:25;;;;;;;1.30;1.20;;;21.40;58.10;;;;;;4989183;28;20214;-88
2022/07/27 02:17:56;;;;;;;1.35;1.25;;;21.30;58.00;;;;;;4972740;28;20290;-88
2022/07/27 02:20:30;;;;;;;1.38;1.27;;;21.30;58.10;;;;;;4968937;28;20189;-87
2022/07/27 02:23:04;;;;;;;1.20;1.10;;;21.30;58.10;;;;;;4970232;28;20207;-88
2022/07/27 02:25:40;;;;;;;1.20;1.10;;;21.30;58.10;;;;;;4966726;28;20184;-88
2022/07/27 02:28:14;;;;;;;1.33;1.23;;;21.30;58.10;;;;;;4951312;29;20824;-89
2022/07/27 02:30:42;;;;;;;1.20;1.10;;;21.30;58.10;;;;;;4948211;28;20385;-90
2022/07/27 02:33:15;;;;;;;1.40;1.30;;;21.30;58.00;;;;;;4958736;28;20757;-89
2022/07/27 02:35:51;;;;;;;1.27;1.00;;;21.30;58.10;;;;;;4964811;28;20208;-88
2022/07/27 02:38:30;;;;;;;;;;;;;;;;;;;;;
2022/07/27 02:41:06;;;;;;;1.40;1.30;;;21.30;58.10;;;;;;4943327;29;20254;-90
2022/07/27 02:43:38;;;;;;;1.92;1.25;;;21.30;58.20;;;;;;4945655;29;20202;-90
2022/07/27 02:46:11;;;;;;;1.15;1.08;;;21.30;58.20;;;;;;4889612;29;20196;-89
2022/07/27 02:48:41;;;;;;;1.30;1.20;;;21.30;58.10;;;;;;4889989;29;20235;-89
2022/07/27 02:51:07;;;;;;;1.27;1.17;;;21.30;58.20;;;;;;4907693;29;20195;-89
2022/07/27 02:53:35;;;;;;;1.50;1.38;;;21.30;58.20;;;;;;4908102;29;20304;-89
2022/07/27 02:56:12;;;;;;;1.33;1.23;;;21.30;58.20;;;;;;4911658;29;20228;-89
2022/07/27 02:58:40;;;;;;;1.30;1.20;;;21.30;58.20;;;;;;4888558;29;20203;-88
2022/07/27 03:01:18;;;;;;;1.23;1.15;;;21.30;58.20;;;;;;4891820;29;20837;-89
2022/07/27 03:03:51;;;;;;;1.35;1.25;;;21.30;58.10;;;;;;4908749;29;20204;-88
2022/07/27 03:06:20;;;;;;;1.30;1.20;;;21.40;58.20;;;;;;4927590;29;20183;-88
2022/07/27 03:09:00;;;;;;;1.27;1.17;;;21.30;58.20;;;;;;4903580;29;20187;-89
2022/07/27 03:11:41;;;;;;;1.20;1.10;;;21.30;58.30;;;;;;4891488;29;20251;-88
2022/07/27 03:14:12;;;;;;;1.20;1.10;;;21.30;58.20;;;;;;4926714;29;20229;-88
2022/07/27 03:17:02;;;;;;;1.45;1.20;;;21.30;58.20;;;;;;4926591;29;20192;-89
2022/07/27 03:19:36;;;;;;;1.35;1.25;;;21.30;58.20;;;;;;4926759;29;20255;-89
2022/07/27 03:22:07;;;;;;;1.48;1.00;;;21.30;58.30;;;;;;4915893;29;20230;-88
2022/07/27 03:24:38;;;;;;;1.27;1.15;;;21.30;58.30;;;;;;4945426;29;20217;-88
2022/07/27 03:27:09;;;;;;;1.40;1.30;;;21.30;58.30;;;;;;4955151;29;20193;-89
2022/07/27 03:29:40;;;;;;;1.40;1.30;;;21.30;58.30;;;;;;4917720;29;20181;-89
2022/07/27 03:32:11;;;;;;;1.30;1.20;;;21.30;58.30;;;;;;4933726;29;20229;-88
2022/07/27 03:34:42;;;;;;;1.10;1.00;;;21.30;58.30;;;;;;4933753;29;20217;-88
2022/07/27 03:37:36;;;;;;;1.15;1.10;;;21.30;58.40;;;;;;4932945;29;20185;-88
2022/07/27 03:40:08;;;;;;;0.88;0.88;;;21.30;58.30;;;;;;4986732;28;20248;-89
2022/07/27 03:42:44;;;;;;;1.75;1.20;;;21.30;59.10;;;;;;4970997;28;20186;-88
2022/07/27 03:45:19;;;;;;;1.13;1.10;;;21.30;58.30;;;;;;4971876;28;20247;-88
2022/07/27 03:47:52;;;;;;;1.50;1.17;;;21.30;58.30;;;;;;5002014;28;20188;-88
2022/07/27 03:50:25;;;;;;;1.27;1.17;;;21.30;58.30;;;;;;4987162;28;20279;-89
2022/07/27 03:52:56;;;;;;;1.13;1.02;;;21.30;58.40;;;;;;4987817;28;20184;-88
2022/07/27 03:55:24;;;;;;;1.30;1.20;;;21.30;58.40;;;;;;4987074;28;20223;-89
2022/07/27 03:57:53;;;;;;;1.20;1.10;;;21.30;58.40;;;;;;4970956;28;20235;-88
2022/07/27 04:00:31;;;;;;;1.05;1.00;;;21.30;58.40;;;;;;4987163;28;20177;-88
2022/07/27 04:03:03;;;;;;;1.30;1.10;;;21.30;58.40;;;;;;5003267;28;20191;-89
2022/07/27 04:05:40;;;;;;;1.40;1.30;;;21.20;58.40;;;;;;5006565;28;20184;-89
2022/07/27 04:08:09;;;;;;;1.48;1.20;;;21.30;58.40;;;;;;4991386;28;20187;-88
2022/07/27 04:10:36;;;;;;;1.20;1.10;;;21.30;58.50;;;;;;4988755;28;20275;-88
2022/07/27 04:13:20;;;;;;;1.60;1.20;;;21.30;58.50;;;;;;4943951;29;20214;-88
2022/07/27 04:16:00;;;;;;;1.20;1.10;;;21.30;58.50;;;;;;4943980;29;20217;-88
2022/07/27 04:18:52;;;;;;;;;;;;;;;;;;;;;
2022/07/27 04:21:34;;;;;;;1.27;1.17;;;21.30;58.50;;;;;;4896229;29;20278;-90
2022/07/27 04:24:03;;;;;;;1.85;1.05;;;21.30;58.60;;;;;;4921332;29;20703;-89
2022/07/27 04:26:34;;;;;;;1.73;1.20;;;21.20;58.50;;;;;;4902720;29;20184;-90
2022/07/27 04:29:02;;;;;;;1.40;1.30;;;21.20;58.50;;;;;;4904249;29;20184;-89
2022/07/27 04:31:34;;;;;;;1.10;1.10;;;21.30;58.60;;;;;;4896809;29;20188;-89
2022/07/27 04:34:02;;;;;;;1.10;1.10;;;21.30;58.60;;;;;;4926979;29;20612;-89
2022/07/27 04:36:50;;;;;;;;;;;;;;;;;;;;;
2022/07/27 04:39:30;;;;;;;1.20;1.10;;;21.20;58.50;;;;;;4922475;29;20255;-89
2022/07/27 04:42:18;;;;;;;1.30;1.20;;;21.20;58.50;;;;;;4907039;29;20190;-88
2022/07/27 04:45:07;;;;;;;1.27;1.10;;;21.20;58.60;;;;;;4878956;29;20188;-87
2022/07/27 04:47:43;;;;;;;1.77;1.20;;;21.30;58.70;;;;;;4901687;29;20660;-87
2022/07/27 04:50:20;;;;;;;1.38;1.27;;;21.20;58.70;;;;;;4909770;29;20215;-89
2022/07/27 04:53:07;;;;;;;1.58;1.20;;;21.30;58.70;;;;;;4923148;29;20187;-88
2022/07/27 04:55:46;;;;;;;1.15;1.05;;;21.20;58.80;;;;;;4926177;29;20250;-89
2022/07/27 04:58:14;;;;;;;1.35;1.25;;;21.20;58.80;;;;;;4923049;29;20183;-89
2022/07/27 05:00:42;;;;;;;1.20;1.10;;;21.20;58.80;;;;;;4926791;29;20202;-89
2022/07/27 05:03:08;;;;;;;0.90;0.90;;;21.30;59.00;;;;;;4929908;29;20201;-90
2022/07/27 05:05:34;;;;;;;1.00;1.00;;;21.30;59.20;;;;;;4945581;29;20182;-89
2022/07/27 05:08:03;;;;;;;1.95;0.95;;;21.30;59.30;;;;;;4945341;29;20603;-88
2022/07/27 05:10:29;;;;;;;1.13;1.00;;;21.30;59.60;;;;;;5015753;28;20189;-90
2022/07/27 05:12:58;;;;;;;0.93;0.80;;;21.20;59.90;;;;;;4975264;28;20304;-88
2022/07/27 05:15:26;;;;;;;0.95;0.90;;;21.10;60.20;;;;;;4964857;29;20220;-88
2022/07/27 05:18:00;;;;;;;1.20;1.10;;;21.10;60.50;;;;;;4965078;29;20181;-88
2022/07/27 05:20:28;;;;;;;1.50;1.00;;;21.00;60.70;;;;;;4981153;28;20190;-86
2022/07/27 05:22:54;;;;;;;1.27;1.00;;;21.10;61.00;;;;;;4957049;28;20180;-87
2022/07/27 05:25:24;;;;;;;0.90;0.90;;;21.00;61.20;;;;;;5020810;28;20187;-88
2022/07/27 05:27:52;;;;;;;0.82;0.82;;;20.90;61.40;;;;;;5010373;28;20186;-90
2022/07/27 05:30:19;;;;;;;1.05;0.85;;;20.90;61.60;;;;;;5043067;28;20163;-88
2022/07/27 05:32:46;;;;;;;1.10;1.00;;;20.90;61.80;;;;;;5026730;28;20182;-89
2022/07/27 05:35:13;;;;;;;0.95;0.95;;;20.90;62.00;;;;;;5043277;28;20191;-89
2022/07/27 05:37:39;;;;;;;0.85;0.85;;;20.80;62.30;;;;;;5042571;28;20163;-88
2022/07/27 05:40:06;;;;;;;0.85;0.80;;;20.80;62.50;;;;;;5061028;28;20201;-88
2022/07/27 05:42:32;;;;;;;1.08;0.93;;;20.80;62.80;;;;;;5050213;28;20223;-89
2022/07/27 05:44:57;;;;;;;1.48;1.08;;;20.80;63.00;;;;;;5051564;28;20165;-88
2022/07/27 05:47:23;;;;;;;1.20;0.90;;;20.80;63.30;;;;;;5050875;28;20271;-87
2022/07/27 05:49:49;;;;;;;0.98;0.82;;;20.70;63.50;;;;;;5049987;28;20172;-87
2022/07/27 05:52:19;;;;;;;1.02;1.00;;;20.70;63.80;;;;;;5083731;28;20238;-87
2022/07/27 05:54:45;;;;;;;1.00;0.90;;;20.70;64.10;;;;;;5070341;28;20695;-88
2022/07/27 05:57:14;;;;;;;0.70;0.70;;;20.70;64.10;;;;;;5103915;28;20188;-88
2022/07/27 05:59:42;;;;;;;1.05;0.90;;;20.70;64.40;;;;;;5025691;28;20282;-89
2022/07/27 06:02:08;;;;;;;1.05;1.00;;;20.60;64.70;;;;;;5025959;28;20589;-88
2022/07/27 06:04:34;;;;;;;0.80;0.80;;;20.60;65.80;;;;;;5025541;28;20186;-88
2022/07/27 06:09:43;;;;;;;0.98;0.88;;;20.50;65.50;;;;;;5008422;28;20193;-88
2022/07/27 06:12:14;;;;;;;1.17;1.02;;;20.60;65.80;;;;;;4990142;28;20187;-88
2022/07/27 06:14:39;;;;;;;1.00;1.00;;;20.60;66.00;;;;;;4989813;28;20207;-87
2022/07/27 06:17:06;;;;;;;0.85;0.82;;;20.60;66.50;;;;;;4990124;28;20185;-87
2022/07/27 06:19:32;;;;;;;0.90;0.80;;;20.60;67.40;;;;;;4989924;28;20175;-90
2022/07/27 06:21:58;;;;;;;1.88;0.90;;;20.50;66.70;;;;;;4990199;28;20186;-89
2022/07/27 06:24:24;;;;;;;1.38;1.00;;;20.50;67.00;;;;;;5006067;28;20183;-87
2022/07/27 06:26:52;;;;;;;0.90;0.90;;;20.50;67.20;;;;;;4990353;28;20289;-88
2022/07/27 06:29:20;;;;;;;0.90;0.90;;;20.50;67.40;;;;;;4990242;28;20170;-88
2022/07/27 06:31:45;;;;;;;0.95;0.93;;;20.60;67.70;;;;;;5006020;28;20183;-88
2022/07/27 06:34:11;;;;;;;0.90;0.80;;;20.50;67.90;;;;;;5006342;28;20206;-89
2022/07/27 06:36:44;;;;;;;1.10;1.00;;;20.50;67.70;;;;;;5005795;28;20290;-89
2022/07/27 06:39:14;;;;;;;0.70;0.70;;;20.50;68.10;;;;;;5043827;28;20173;-88
2022/07/27 06:41:42;;;;;;;0.80;0.80;;;20.50;68.40;;;;;;5025218;28;20178;-88
2022/07/27 06:44:11;;;;;;;1.00;0.82;;;20.50;68.50;;;;;;5025845;28;20214;-89
2022/07/27 06:46:38;;;;;;;0.75;0.75;;;20.40;68.40;;;;;;5026129;28;20191;-87
2022/07/27 06:49:05;;;;;;;0.80;0.80;;;20.40;68.70;;;;;;5025088;28;20193;-90
2022/07/27 06:51:32;;;;;;;0.95;0.88;;;20.40;68.60;;;;;;5025424;28;20629;-88
2022/07/27 06:53:59;;;;;;;0.93;0.93;;;20.40;68.80;;;;;;5023969;28;20616;-88
2022/07/27 06:56:30;;;;;;;0.82;0.80;;;20.50;68.80;;;;;;5062329;28;20213;-88
2022/07/27 06:59:00;;;;;;;0.80;0.70;;;20.40;68.80;;;;;;5048103;28;20200;-88
2022/07/27 07:01:31;;;;;;;0.98;0.80;;;20.40;69.00;;;;;;5048203;28;20165;-89
2022/07/27 07:03:58;;;;;;;0.60;0.50;;;20.40;68.60;;;;;;5064795;28;20176;-88
2022/07/27 07:06:25;;;;;;;0.85;0.77;;;20.50;68.60;;;;;;5027988;28;20181;-89
2022/07/27 07:08:51;;;;;;;0.75;0.73;;;20.50;68.60;;;;;;4981521;28;20184;-89
2022/07/27 07:11:21;;;;;;;0.70;0.70;;;20.40;68.50;;;;;;4950662;28;20188;-89
2022/07/27 07:13:47;;;;;;;0.70;0.70;;;20.50;68.10;;;;;;4966030;28;20184;-88
2022/07/27 07:16:15;;;;;;;0.60;0.60;;;20.50;67.90;;;;;;4964649;28;20215;-88
2022/07/27 07:18:45;;;;;;;0.60;0.60;;;20.60;67.70;;;;;;4926952;29;20181;-88
2022/07/27 07:21:11;;;;;;;0.80;0.80;;;20.70;67.50;;;;;;4928042;29;20182;-89
2022/07/27 07:23:38;;;;;;;0.95;0.80;;;20.70;67.20;;;;;;4909031;29;20284;-88
2022/07/27 07:26:04;;;;;;;0.80;0.80;;;20.70;66.90;;;;;;4910595;29;20217;-88
2022/07/27 07:28:31;;;;;;;1.10;0.90;;;20.80;66.80;;;;;;4908930;29;20209;-87
2022/07/27 07:31:05;;;;;;;0.80;0.80;;;20.80;66.80;;;;;;4924828;29;20248;-91
2022/07/27 07:33:32;;;;;;;0.80;0.80;;;20.80;66.70;;;;;;4924496;29;20196;-90
2022/07/27 07:35:57;;;;;;;0.80;0.80;;;20.90;66.50;;;;;;4924604;29;20194;-89
2022/07/27 07:38:23;;;;;;;0.77;0.77;;;20.90;66.40;;;;;;4934827;29;20178;-90
2022/07/27 07:40:49;;;;;;;0.90;0.90;;;20.90;66.30;;;;;;5036285;28;20215;-88
2022/07/27 07:43:16;;;;;;;1.45;1.00;;;20.90;66.20;;;;;;5044136;28;20184;-89
2022/07/27 07:45:44;;;;;;;0.80;0.80;;;20.90;66.10;;;;;;5044211;28;20256;-87
2022/07/27 07:48:11;;;;;;;0.90;0.88;;;21.00;66.00;;;;;;5043453;28;20663;-88
2022/07/27 07:50:40;;;;;;;1.10;0.98;;;20.90;66.00;;;;;;5077488;28;20184;-88
2022/07/27 07:53:05;;;;;;;1.00;0.80;;;21.00;65.90;;;;;;5083347;28;20161;-88
2022/07/27 07:55:31;;;;;;;0.68;0.68;;;21.00;65.80;;;;;;5068439;28;20298;-87
2022/07/27 07:58:00;;;;;;;0.73;0.73;;;21.00;66.00;;;;;;5083372;28;20172;-88
2022/07/27 08:00:26;;;;;;;0.57;0.57;;;21.00;66.40;;;;;;5067642;28;20165;-87
2022/07/27 08:02:57;;;;;;;0.90;0.80;;;20.90;66.70;;;;;;5067763;28;20176;-88
2022/07/27 08:05:24;;;;;;;0.88;0.80;;;20.90;66.90;;;;;;5042749;28;20747;-89
2022/07/27 08:07:50;;;;;;;0.63;0.63;;;20.90;67.00;;;;;;5008855;28;20631;-87
2022/07/27 08:10:19;;;;;;;0.55;0.55;;;20.80;67.20;;;;;;4993524;28;20186;-90
2022/07/27 08:12:46;;;;;;;0.70;0.70;;;20.90;67.20;;;;;;4992340;28;20166;-89
2022/07/27 08:15:13;;;;;;;0.90;0.80;;;20.70;67.10;;;;;;5009448;28;20250;-89
2022/07/27 08:17:43;;;;;;;0.60;0.60;;;20.80;67.30;;;;;;4992907;28;20179;-88
2022/07/27 08:20:10;;;;;;;0.70;0.70;;;20.70;67.40;;;;;;5025898;28;20183;-89
2022/07/27 08:22:36;;;;;;;0.60;0.60;;;20.70;67.40;;;;;;5008588;28;20186;-88
2022/07/27 08:25:03;;;;;;;0.70;0.70;;;20.70;67.40;;;;;;5009575;28;20209;-91
2022/07/27 08:27:29;;;;;;;0.88;0.70;;;20.70;67.40;;;;;;4992220;28;20687;-89
2022/07/27 08:29:56;;;;;;;0.43;0.43;;;20.70;67.40;;;;;;4992776;28;20209;-88
2022/07/27 08:32:27;;;;;;;0.50;0.50;;;20.70;67.20;;;;;;4988686;28;20652;-88
2022/07/27 08:34:55;;;;;;;0.52;0.52;;;20.70;67.20;;;;;;4974141;28;20211;-88
2022/07/27 08:37:23;;;;;;;1.17;0.55;;;20.70;67.20;;;;;;4976088;28;20247;-87
2022/07/27 08:39:52;;;;;;;0.60;0.60;;;20.70;67.30;;;;;;5009832;28;20209;-87
2022/07/27 08:42:18;;;;;;;0.40;0.40;;;20.70;67.20;;;;;;5006380;28;20535;-88
2022/07/27 08:44:46;;;;;;;0.30;0.30;;;20.70;67.00;;;;;;4970781;28;20188;-88
2022/07/27 08:47:15;;;;;;;0.45;0.45;;;20.70;66.90;;;;;;4967467;29;20647;-88
2022/07/27 08:49:43;;;;;;;0.43;0.40;;;20.70;66.70;;;;;;4967860;29;20193;-89
2022/07/27 08:52:14;;;;;;;0.52;0.45;;;20.70;66.50;;;;;;4967083;29;20787;-89
2022/07/27 08:54:43;;;;;;;0.47;0.40;;;20.70;66.20;;;;;;4944795;29;20211;-88
2022/07/27 08:57:09;;;;;;;0.50;0.40;;;20.70;66.10;;;;;;4964107;29;20228;-88
2022/07/27 08:59:35;;;;;;;0.43;0.43;;;20.70;65.80;;;;;;4948784;29;20186;-88
2022/07/27 09:02:14;;;;;;;0.40;0.40;;;20.70;65.70;;;;;;4964741;29;20178;-87
2022/07/27 09:04:40;;;;;;;0.38;0.38;;;20.70;65.30;;;;;;4985189;28;20220;-89
2022/07/27 09:07:21;;;;;;;0.30;0.30;;;20.70;65.10;;;;;;5002761;28;20181;-89
2022/07/27 09:09:53;;;;;;;0.45;0.45;;;20.70;65.10;;;;;;4997862;28;20189;-88
2022/07/27 09:12:21;;;;;;;0.30;0.30;;;20.70;65.00;;;;;;4999333;28;20181;-88
2022/07/27 09:14:54;;;;;;;0.40;0.40;;;20.70;65.00;;;;;;4985959;28;20212;-89
2022/07/27 09:17:30;;;;;;;0.30;0.30;;;20.70;65.00;;;;;;5007583;28;20183;-88
2022/07/27 09:20:04;;;;;;;0.30;0.30;;;20.70;64.80;;;;;;4979093;28;20186;-89
2022/07/27 09:22:55;;;;;;;1.27;0.32;;;20.70;64.40;;;;;;5005518;28;20310;-89
2022/07/27 09:25:34;;;;;;;0.40;0.40;;;20.80;64.10;;;;;;4982291;28;20193;-87
2022/07/27 09:28:21;;;;;;;0.30;0.30;;;20.80;63.70;;;;;;5010248;28;20195;-88
2022/07/27 09:30:54;;;;;;;0.30;0.30;;;20.80;63.30;;;;;;4966348;29;20256;-88
2022/07/27 09:33:20;;;;;;;0.43;0.43;;;20.90;63.20;;;;;;4966011;29;20217;-88
2022/07/27 09:36:16;;;;;;;0.40;0.40;;;20.90;63.50;;;;;;4948874;29;20214;-89
2022/07/27 09:39:04;;;;;;;0.52;0.52;;;20.90;63.40;;;;;;4931431;29;20182;-88
2022/07/27 09:41:51;;;;;;;0.40;0.40;;;21.00;63.40;;;;;;4976982;28;20177;-89
2022/07/27 09:44:39;;;;;;;0.57;0.50;;;21.00;63.40;;;;;;4947070;29;20186;-87
2022/07/27 09:47:27;;;;;;;0.40;0.40;;;20.90;63.30;;;;;;4912510;29;20801;-90
2022/07/27 09:50:25;;;;;;;0.55;0.50;;;21.00;63.40;;;;;;4912311;29;20190;-88
2022/07/27 09:52:51;;;;;;;0.60;0.60;;;21.00;63.60;;;;;;4915147;29;20207;-89
2022/07/27 09:55:24;;;;;;;0.50;0.50;;;21.00;63.30;;;;;;4910074;29;20261;-89
2022/07/27 09:57:53;;;;;;;0.60;0.60;;;21.10;63.00;;;;;;4896959;29;20193;-89
2022/07/27 10:00:26;;;;;;;0.65;0.60;;;21.10;63.20;;;;;;4930704;29;20190;-88
2022/07/27 10:02:55;;;;;;;0.40;0.40;;;21.20;62.80;;;;;;4845717;29;20188;-89
2022/07/27 10:05:28;;;;;;;0.50;0.50;;;21.20;62.60;;;;;;4865210;29;20181;-90
2022/07/27 10:07:59;;;;;;;0.50;0.50;;;21.20;62.80;;;;;;4872831;29;20212;-88
2022/07/27 10:10:25;;;;;;;0.45;0.45;;;21.20;62.60;;;;;;4870827;29;20284;-90
2022/07/27 10:14:04;;;;;;;;;;;;;;;;;;;;;
2022/07/27 10:17:14;;;;;;;;;;;;;;;;;;;;;
2022/07/27 10:30:09;;;;;;;0.47;0.40;;;21.30;61.40;;;;;;4776991;30;20627;-89
2022/07/27 10:32:43;;;;;;;0.50;0.45;;;21.40;61.30;;;;;;4742739;30;20192;-90
2022/07/27 10:35:36;;;;;;;0.50;0.50;;;21.40;61.20;;;;;;4743277;30;20217;-88
2022/07/27 10:38:20;;;;;;;0.55;0.50;;;21.40;61.20;;;;;;4743413;30;20190;-89
2022/07/27 10:41:13;;;;;;;0.40;0.40;;;21.40;61.00;;;;;;4730501;30;20176;-89
2022/07/27 10:43:44;;;;;;;0.40;0.40;;;21.40;60.80;;;;;;4761353;30;20185;-90
2022/07/27 10:46:22;;;;;;;0.30;0.30;;;21.50;60.80;;;;;;4765908;30;20199;-88
2022/07/27 10:49:00;;;;;;;0.47;0.47;;;21.50;60.80;;;;;;4793121;30;20188;-90
2022/07/27 10:51:37;;;;;;;0.40;0.40;;;21.50;60.50;;;;;;4757295;30;20203;-88
2022/07/27 10:54:36;;;;;;;0.40;0.40;;;21.50;60.50;;;;;;4698434;30;20199;-90
2022/07/27 10:57:06;;;;;;;0.50;0.50;;;21.50;60.40;;;;;;4736794;30;20201;-89
2022/07/27 10:59:52;;;;;;;0.40;0.40;;;21.50;60.30;;;;;;4709295;30;20203;-90
2022/07/27 11:02:39;;;;;;;0.47;0.47;;;21.50;60.30;;;;;;4731458;30;20701;-89
2022/07/27 11:05:34;;;;;;;0.40;0.40;;;21.50;60.30;;;;;;4774318;30;20254;-88
2022/07/27 11:08:04;;;;;;;0.30;0.30;;;21.50;60.40;;;;;;4758534;30;20217;-89
2022/07/27 11:11:06;;;;;;;0.40;0.40;;;21.50;60.30;;;;;;4715779;30;20220;-90
2022/07/27 11:13:35;;;;;;;0.40;0.40;;;21.50;60.30;;;;;;4791512;30;20194;-89
2022/07/27 11:16:23;;;;;;;0.40;0.40;;;21.50;60.30;;;;;;4796548;29;20246;-90
2022/07/27 11:19:07;;;;;;;0.35;0.35;;;21.50;60.20;;;;;;4800886;29;20190;-89
2022/07/27 11:21:40;;;;;;;0.40;0.38;;;21.50;60.70;;;;;;4821621;29;20223;-88
2022/07/27 11:24:22;;;;;;;0.40;0.40;;;21.50;59.80;;;;;;4836575;29;20188;-90
2022/07/27 11:27:58;;;;;;;0.55;0.32;;;21.50;59.90;;;;;;4883264;29;20196;-89
2022/07/27 11:31:15;;;;;;;0.50;0.40;;;21.60;59.70;;;;;;4846645;29;20302;-89
2022/07/27 11:34:08;;;;;;;0.28;0.28;;;21.50;59.60;;;;;;4852043;29;20270;-88
2022/07/27 11:37:46;;;;;;;1.17;0.30;;;21.60;59.70;;;;;;4814431;29;20203;-90
2022/07/27 11:40:14;;;;;;;0.32;0.32;;;21.60;59.60;;;;;;4785587;29;20271;-90
2022/07/27 11:42:49;;;;;;;0.40;0.40;;;21.50;59.60;;;;;;4811087;29;20192;-90
2022/07/27 11:45:42;;;;;;;0.30;0.30;;;21.50;60.10;;;;;;4828395;29;20231;-89
2022/07/27 11:48:18;;;;;;;0.40;0.40;;;21.60;59.20;;;;;;4795499;29;20195;-89
2022/07/27 11:51:06;;;;;;;0.32;0.32;;;21.70;59.00;;;;;;4828735;29;20187;-90
2022/07/27 11:53:42;;;;;;;0.30;0.30;;;21.70;59.00;;;;;;4813212;29;20195;-88
2022/07/27 11:56:46;;;;;;;;;;;;;;;;;;;;;
2022/07/27 11:59:32;;;;;;;0.30;0.30;;;21.60;58.90;;;;;;4780935;30;20739;-89
2022/07/27 12:02:12;;;;;;;0.40;0.40;;;21.50;58.80;;;;;;4752438;30;20196;-88
2022/07/27 12:04:53;;;;;;;0.20;0.20;;;21.50;58.80;;;;;;4768211;30;20196;-89
2022/07/27 12:07:29;;;;;;;0.30;0.30;;;21.50;58.90;;;;;;4763630;30;20194;-88
2022/07/27 12:10:15;;;;;;;0.20;0.20;;;21.40;58.80;;;;;;4784515;29;20187;-90
2022/07/27 12:12:52;;;;;;;0.30;0.30;;;21.40;58.80;;;;;;4812717;29;20244;-90
2022/07/27 12:15:41;;;;;;;0.35;0.35;;;21.50;58.70;;;;;;4824428;29;20304;-89
2022/07/27 12:18:18;;;;;;;0.20;0.20;;;21.40;58.70;;;;;;4838463;29;20188;-88
2022/07/27 12:20:52;;;;;;;0.43;0.30;;;21.40;58.70;;;;;;4869505;29;20274;-89
2022/07/27 12:23:27;;;;;;;0.30;0.30;;;21.40;58.60;;;;;;4840511;29;20736;-88
2022/07/27 12:26:23;;;;;;;0.30;0.30;;;21.40;58.50;;;;;;4839031;29;20188;-88
2022/07/27 12:29:17;;;;;;;0.30;0.30;;;21.30;58.50;;;;;;4914734;29;20239;-90
2022/07/27 12:32:05;;;;;;;0.52;0.30;;;21.30;58.30;;;;;;4921022;29;20698;-89
2022/07/27 12:34:34;;;;;;;0.75;0.30;;;21.30;58.40;;;;;;4906951;29;20210;-89
2022/07/27 12:38:15;;;;;;;0.20;0.20;;;21.40;58.50;;;;;;4877380;29;20221;-88
2022/07/27 12:40:39;;;;;;;;;;;;;;;;;;;;;
2022/07/27 12:43:40;;;;;;;0.20;0.20;;;21.20;58.30;;;;;;4869722;29;20252;-88
2022/07/27 12:46:31;;;;;;;;;;;;;;;;;;;;;
2022/07/27 12:49:14;;;;;;;0.30;0.30;;;21.30;58.20;;;;;;4926332;29;20281;-88
2022/07/27 12:51:40;;;;;;;0.20;0.20;;;21.20;58.20;;;;;;4962805;28;20273;-89
2022/07/27 12:54:07;;;;;;;0.98;0.32;;;21.20;58.10;;;;;;4946865;29;20204;-90
2022/07/27 12:56:38;;;;;;;0.30;0.25;;;21.20;58.20;;;;;;4964176;28;20325;-89
2022/07/27 12:59:04;;;;;;;0.30;0.30;;;21.20;58.20;;;;;;4948201;29;20181;-88
2022/07/27 13:01:30;;;;;;;0.30;0.30;;;21.30;58.10;;;;;;4948040;29;20173;-89
2022/07/27 13:03:56;;;;;;;0.30;0.30;;;21.20;58.60;;;;;;4933069;29;20185;-88
2022/07/27 13:06:24;;;;;;;0.30;0.30;;;21.10;58.00;;;;;;4932360;29;20256;-90
2022/07/27 13:08:49;;;;;;;1.05;0.20;;;21.20;58.00;;;;;;4961690;28;20188;-89
2022/07/27 13:11:16;;;;;;;0.30;0.30;;;21.20;58.10;;;;;;4955413;28;20191;-90
2022/07/27 13:13:49;;;;;;;0.30;0.30;;;21.20;58.00;;;;;;4971656;28;20194;-88
2022/07/27 13:16:15;;;;;;;0.30;0.30;;;21.20;58.10;;;;;;4957161;28;20215;-88
2022/07/27 13:18:41;;;;;;;0.38;0.38;;;21.30;58.20;;;;;;4975940;28;20175;-87
2022/07/27 13:21:16;;;;;;;0.30;0.30;;;21.20;58.00;;;;;;5016152;28;20162;-88
2022/07/27 13:23:42;;;;;;;0.63;0.30;;;21.30;58.20;;;;;;5087941;28;20192;-87
2022/07/27 13:26:08;;;;;;;0.20;0.20;;;21.20;58.20;;;;;;5105114;28;20157;-88
2022/07/27 13:28:35;;;;;;;0.32;0.32;;;21.20;58.20;;;;;;5066480;28;20189;-89
2022/07/27 13:31:01;;;;;;;0.30;0.30;;;21.20;58.00;;;;;;5050050;28;20192;-90
2022/07/27 13:33:31;;;;;;;0.30;0.30;;;21.20;58.00;;;;;;5033574;28;20590;-88
2022/07/27 13:35:56;;;;;;;0.28;0.28;;;21.20;58.00;;;;;;5050684;28;20192;-88
2022/07/27 13:38:23;;;;;;;0.22;0.22;;;21.30;58.10;;;;;;5067545;28;20177;-89
2022/07/27 13:40:54;;;;;;;0.30;0.30;;;21.20;58.20;;;;;;5026274;28;20287;-90
2022/07/27 13:43:21;;;;;;;0.30;0.30;;;21.30;58.10;;;;;;5010716;28;20206;-88
2022/07/27 13:45:48;;;;;;;0.30;0.30;;;21.20;57.90;;;;;;5026883;28;20246;-90
2022/07/27 13:48:14;;;;;;;0.40;0.40;;;21.30;58.00;;;;;;5010149;28;20183;-88
2022/07/27 13:50:40;;;;;;;0.30;0.30;;;21.20;58.00;;;;;;5010169;28;20182;-89